createdAt,value
2024-04-12T00:02:15.050Z,99141.42
2024-04-12T00:04:48.751Z,99144.02
2024-04-12T00:07:23.668Z,99150.92
2024-04-12T00:09:57.116Z,99138.73
2024-04-12T00:12:31.684Z,99149.14
2024-04-12T00:15:07.128Z,99137.83
2024-04-12T00:17:40.995Z,99144.78
2024-04-12T00:20:14.326Z,99142.18
2024-04-12T00:22:49.273Z,99141.27
2024-04-12T00:25:22.961Z,99140.41
2024-04-12T00:27:56.968Z,99137.75
2024-04-12T00:30:40.544Z,99140.35
2024-04-12T00:33:14.215Z,99135.13
2024-04-12T00:35:49.832Z,99135.13
2024-04-12T00:38:24.717Z,99136.05
2024-04-12T00:40:59.746Z,99124.77
2024-04-12T00:43:34.773Z,99123.02
2024-04-12T00:46:10.346Z,99117.78
2024-04-12T00:48:44.434Z,99115.17
2024-04-12T00:51:23.009Z,99123.84
2024-04-12T00:53:58.515Z,99110.75
2024-04-12T00:56:32.233Z,99104.63
2024-04-12T00:59:07.086Z,99115.86
2024-04-12T01:01:40.380Z,99120.12
2024-04-12T01:04:14.128Z,99109.64
2024-04-12T01:06:49.176Z,99105.25
2024-04-12T01:09:22.841Z,99108.66
2024-04-12T01:11:58.938Z,99104.27
2024-04-12T01:14:34.600Z,99113.81
2024-04-12T01:17:10.008Z,99114.66
2024-04-12T01:19:43.754Z,99102.49
2024-04-12T01:22:17.185Z,99098.18
2024-04-12T01:24:50.841Z,99101.64
2024-04-12T01:27:24.182Z,99092.89
2024-04-12T01:29:58.047Z,99091.23
2024-04-12T01:32:32.035Z,99093.00
2024-04-12T01:35:05.962Z,99084.34
2024-04-12T01:37:40.862Z,99092.17
2024-04-12T01:40:14.282Z,99079.16
2024-04-12T01:42:50.103Z,99080.06
2024-04-12T01:45:25.693Z,99074.00
2024-04-12T01:47:59.339Z,99065.36
2024-04-12T01:50:34.532Z,99063.63
2024-04-12T01:53:10.288Z,99066.22
2024-04-12T01:55:45.431Z,99070.59
2024-04-12T01:58:20.870Z,99068.88
2024-04-12T02:00:54.407Z,99068.89
2024-04-12T02:03:29.993Z,99068.05
2024-04-12T02:06:07.024Z,99078.48
2024-04-12T02:08:40.516Z,99061.17
2024-04-12T02:11:13.816Z,99059.48
2024-04-12T02:13:47.205Z,99057.79
2024-04-12T02:16:22.263Z,99056.09
2024-04-12T02:18:55.867Z,99056.10
2024-04-12T02:21:31.034Z,99052.63
2024-04-12T02:24:05.308Z,99040.47
2024-04-12T02:26:40.005Z,99035.20
2024-04-12T02:29:13.783Z,99035.19
2024-04-12T02:31:47.098Z,99029.98
2024-04-12T02:34:20.581Z,99029.11
2024-04-12T02:36:53.887Z,99030.83
2024-04-12T02:39:28.869Z,99020.45
2024-04-12T02:42:03.650Z,99015.23
2024-04-12T02:44:39.263Z,99009.98
2024-04-12T02:47:14.383Z,99022.14
2024-04-12T02:49:48.038Z,99009.95
2024-04-12T02:52:22.231Z,99009.95
2024-04-12T02:54:56.523Z,99007.30
2024-04-12T02:57:30.701Z,99014.33
2024-04-12T03:00:05.301Z,98999.61
2024-04-12T03:02:39.253Z,99018.72
2024-04-12T03:05:12.538Z,99008.40
2024-04-12T03:07:47.245Z,99022.28
2024-04-12T03:10:20.636Z,98992.77
2024-04-12T03:12:54.389Z,99005.79
2024-04-12T03:15:29.512Z,98995.37
2024-04-12T03:18:04.778Z,98992.77
2024-04-12T03:20:39.237Z,98984.95
2024-04-12T03:23:13.151Z,98988.47
2024-04-12T03:25:46.732Z,98993.67
2024-04-12T03:28:20.569Z,98972.78
2024-04-12T03:30:56.460Z,98972.83
2024-04-12T03:33:29.791Z,98970.28
2024-04-12T03:39:18.112Z,98965.84
2024-04-12T03:41:55.779Z,98973.61
2024-04-12T03:44:32.365Z,98976.11
2024-04-12T03:47:12.144Z,98957.80
2024-04-12T03:49:45.765Z,98969.06
2024-04-12T03:52:21.202Z,98976.94
2024-04-12T03:54:56.667Z,98963.86
2024-04-12T03:57:29.875Z,98960.33
2024-04-12T04:00:04.991Z,98964.56
2024-04-12T04:02:41.018Z,98973.20
2024-04-12T04:05:17.927Z,98974.84
2024-04-12T04:07:51.480Z,98968.73
2024-04-12T04:10:27.418Z,98973.08
2024-04-12T04:13:02.558Z,98968.72
2024-04-12T04:15:37.424Z,98962.53
2024-04-12T04:18:12.076Z,98971.16
2024-04-12T04:20:45.789Z,98972.76
2024-04-12T04:23:20.772Z,98952.76
2024-04-12T04:25:56.694Z,98957.92
2024-04-12T04:28:32.130Z,98949.27
2024-04-12T04:31:07.836Z,98952.05
2024-04-12T04:33:41.397Z,98950.52
2024-04-12T04:36:14.720Z,98953.36
2024-04-12T04:38:49.829Z,98927.45
2024-04-12T04:41:27.342Z,98954.40
2024-04-12T04:44:00.692Z,98944.90
2024-04-12T04:46:34.049Z,98931.91
2024-04-12T04:49:29.906Z,98937.20
2024-04-12T04:52:41.766Z,98923.40
2024-04-12T04:55:49.087Z,98925.20
2024-04-12T04:58:43.035Z,98913.05
2024-04-12T05:01:18.464Z,98915.73
2024-04-12T05:03:56.510Z,98900.97
2024-04-12T05:06:31.267Z,98910.58
2024-04-12T05:09:06.586Z,98910.66
2024-04-12T05:11:44.078Z,98906.28
2024-04-12T05:14:40.866Z,98890.64
2024-04-12T05:17:22.134Z,98894.99
2024-04-12T05:19:59.167Z,98892.40
2024-04-12T05:22:34.100Z,98903.72
2024-04-12T05:25:10.942Z,98867.17
2024-04-12T05:27:49.975Z,98890.66
2024-04-12T05:30:27.856Z,98902.86
2024-04-12T05:33:04.002Z,98862.84
2024-04-12T05:35:52.665Z,98861.12
2024-04-12T05:38:31.219Z,98847.16
2024-04-12T05:41:06.580Z,98864.60
2024-04-12T05:43:52.248Z,98860.25
2024-04-12T05:46:35.937Z,98839.32
2024-04-12T05:49:24.301Z,98834.95
2024-04-12T05:54:47.556Z,98822.64
2024-04-12T05:57:34.166Z,98835.77
2024-04-12T06:00:11.728Z,98842.64
2024-04-12T06:02:45.478Z,98810.23
2024-04-12T06:05:19.855Z,98808.52
2024-04-12T06:07:53.885Z,98801.62
2024-04-12T06:10:31.380Z,98827.81
2024-04-12T06:13:06.570Z,98822.54
2024-04-12T06:15:40.447Z,98814.64
2024-04-12T06:18:14.357Z,98788.44
2024-04-12T06:20:50.015Z,98818.13
2024-04-12T06:23:26.040Z,98800.59
2024-04-12T06:26:00.460Z,98826.67
2024-04-12T06:28:33.940Z,98828.41
2024-04-12T06:31:09.494Z,98805.68
2024-04-12T06:33:46.557Z,98806.52
2024-04-12T06:36:20.238Z,98807.39
2024-04-12T06:38:56.121Z,98837.97
2024-04-12T06:41:31.283Z,98822.30
2024-04-12T06:44:07.310Z,98808.30
2024-04-12T06:46:42.596Z,98788.11
2024-04-12T06:49:15.964Z,98796.78
2024-04-12T06:52:07.010Z,98797.67
2024-04-12T06:54:43.369Z,98791.52
2024-04-12T06:57:24.061Z,98812.39
2024-04-12T07:00:00.594Z,98832.48
2024-04-12T07:02:36.414Z,98776.59
2024-04-12T07:05:15.406Z,98800.12
2024-04-12T07:07:49.068Z,98806.06
2024-04-12T07:10:23.933Z,98798.03
2024-04-12T07:12:57.820Z,98802.47
2024-04-12T07:15:31.121Z,98793.77
2024-04-12T07:18:05.005Z,98799.94
2024-04-12T07:20:40.350Z,98813.09
2024-04-12T07:23:15.422Z,98780.77
2024-04-12T07:25:49.504Z,98779.94
2024-04-12T07:28:22.731Z,98786.83
2024-04-12T07:30:57.566Z,98790.38
2024-04-12T07:33:32.908Z,98791.23
2024-04-12T07:36:08.672Z,98761.45
2024-04-12T07:38:43.494Z,98798.77
2024-04-12T07:41:17.002Z,98791.00
2024-04-12T07:43:50.189Z,98817.13
2024-04-12T07:46:25.068Z,98784.56
2024-04-12T07:48:59.268Z,98758.33
2024-04-12T07:51:33.397Z,98783.98
2024-04-12T07:54:06.669Z,98776.28
2024-04-12T07:56:41.500Z,98780.55
2024-04-12T07:59:17.538Z,98809.40
2024-04-12T08:01:52.591Z,98782.23
2024-04-12T08:04:27.515Z,98783.06
2024-04-12T08:07:02.744Z,98786.55
2024-04-12T08:09:39.643Z,98773.44
2024-04-12T08:12:18.031Z,98770.84
2024-04-12T08:14:55.175Z,98781.34
2024-04-12T08:17:31.845Z,98775.27
2024-04-12T08:20:07.891Z,98779.69
2024-04-12T08:22:43.123Z,98793.65
2024-04-12T08:25:18.408Z,98798.03
2024-04-12T08:27:53.676Z,98773.55
2024-04-12T08:30:53.776Z,98703.13
2024-04-12T08:33:28.845Z,98764.73
2024-04-12T08:36:14.264Z,98758.37
2024-04-12T08:38:57.823Z,98760.05
2024-04-12T08:41:34.095Z,98753.63
2024-04-12T08:44:16.750Z,98758.83
2024-04-12T08:47:32.573Z,98749.27
2024-04-12T08:53:07.966Z,98744.61
2024-04-12T08:55:43.900Z,98755.03
2024-04-12T08:58:19.567Z,98735.98
2024-04-12T09:01:44.072Z,98742.15
2024-04-12T09:04:20.571Z,98740.16
2024-04-12T09:06:54.822Z,98729.25
2024-04-12T09:09:29.537Z,98748.45
2024-04-12T09:12:03.564Z,98740.55
2024-04-12T09:14:38.869Z,98744.92
2024-04-12T09:17:14.238Z,98730.48
2024-04-12T09:19:47.713Z,98725.64
2024-04-12T09:22:22.489Z,98728.31
2024-04-12T09:24:57.380Z,98725.17
2024-04-12T09:28:11.134Z,98716.36
2024-04-12T09:31:03.405Z,98725.64
2024-04-12T09:33:37.438Z,98704.64
2024-04-12T09:36:15.375Z,98740.27
2024-04-12T09:38:48.973Z,98723.98
2024-04-12T09:41:33.585Z,98708.66
2024-04-12T09:44:09.768Z,98719.36
2024-04-12T09:46:50.620Z,98736.47
2024-04-12T09:49:45.250Z,98729.25
2024-04-12T09:52:36.184Z,98723.41
2024-04-12T09:55:27.501Z,98718.90
2024-04-12T09:58:21.432Z,98729.48
2024-04-12T10:01:21.084Z,98739.28
2024-04-12T10:04:14.955Z,98710.22
2024-04-12T10:07:08.524Z,98733.62
2024-04-12T10:10:01.796Z,98714.95
2024-04-12T10:12:54.856Z,98713.53
2024-04-12T10:15:46.381Z,98704.30
2024-04-12T10:18:38.240Z,98705.10
2024-04-12T10:21:29.400Z,98712.00
2024-04-12T10:24:25.765Z,98706.10
2024-04-12T10:27:17.540Z,98733.78
2024-04-12T10:30:10.183Z,98701.82
2024-04-12T10:33:04.214Z,98713.39
2024-04-12T10:35:56.678Z,98698.72
2024-04-12T10:38:41.684Z,98700.78
2024-04-12T10:41:09.646Z,98713.63
2024-04-12T10:43:43.565Z,98699.34
2024-04-12T10:46:17.218Z,98727.35
2024-04-12T10:48:50.888Z,98691.96
2024-04-12T10:51:24.904Z,98720.10
2024-04-12T10:53:58.529Z,98699.81
2024-04-12T10:56:32.874Z,98682.36
2024-04-12T10:59:07.614Z,98703.41
2024-04-12T11:01:41.027Z,98692.11
2024-04-12T11:04:19.659Z,98687.07
2024-04-12T11:06:53.852Z,98716.94
2024-04-12T11:09:29.111Z,98705.88
2024-04-12T11:12:06.089Z,98718.14
2024-04-12T11:14:40.164Z,98712.78
2024-04-12T11:17:31.440Z,98685.58
2024-04-12T11:20:35.736Z,98696.09
2024-04-12T11:23:28.109Z,98707.56
2024-04-12T11:26:18.998Z,98697.08
2024-04-12T11:29:09.924Z,98694.48
2024-04-12T11:31:43.724Z,98704.44
2024-04-12T11:34:28.311Z,98691.73
2024-04-12T11:36:56.352Z,98697.86
2024-04-12T11:39:29.579Z,98693.50
2024-04-12T11:42:02.861Z,98648.92
2024-04-12T11:44:37.273Z,98664.77
2024-04-12T11:47:11.263Z,98673.56
2024-04-12T11:49:46.944Z,98697.22
2024-04-12T11:52:20.988Z,98673.59
2024-04-12T11:54:54.983Z,98681.38
2024-04-12T11:57:29.620Z,98681.22
2024-04-12T12:00:04.532Z,98681.06
2024-04-12T12:02:42.333Z,98670.66
2024-04-12T12:05:19.427Z,98669.89
2024-04-12T12:07:54.450Z,98645.37
2024-04-12T12:10:28.083Z,98676.00
2024-04-12T12:13:02.626Z,98642.75
2024-04-12T12:15:36.126Z,98643.98
2024-04-12T12:18:09.920Z,98645.75
2024-04-12T12:20:46.177Z,98647.09
2024-04-12T12:23:19.762Z,98635.64
2024-04-12T12:25:54.391Z,98628.58
2024-04-12T12:28:28.222Z,98625.55
2024-04-12T12:31:02.274Z,98627.81
2024-04-12T12:33:37.770Z,98614.81
2024-04-12T12:36:11.989Z,98593.74
2024-04-12T12:38:45.620Z,98596.55
2024-04-12T12:41:19.475Z,98598.28
2024-04-12T12:43:54.486Z,98590.16
2024-04-12T12:46:27.797Z,98595.09
2024-04-12T12:49:02.605Z,98578.33
2024-04-12T12:51:37.619Z,98582.39
2024-04-12T12:54:11.424Z,98598.60
2024-04-12T12:56:44.887Z,98591.66
2024-04-12T12:59:23.660Z,98566.45
2024-04-12T13:01:56.683Z,98585.61
2024-04-12T13:04:30.190Z,98608.17
2024-04-12T13:07:06.074Z,98600.44
2024-04-12T13:09:39.889Z,98591.53
2024-04-12T13:12:14.163Z,98607.20
2024-04-12T13:14:49.189Z,98581.86
2024-04-12T13:17:24.225Z,98586.42
2024-04-12T13:19:58.311Z,98593.58
2024-04-12T13:22:33.536Z,98599.30
2024-04-12T13:25:09.513Z,98569.03
2024-04-12T13:27:44.580Z,98565.98
2024-04-12T13:30:23.008Z,98575.84
2024-04-12T13:32:58.366Z,98587.91
2024-04-12T13:35:33.123Z,98556.30
2024-04-12T13:38:06.729Z,98544.58
2024-04-12T13:40:41.754Z,98545.02
2024-04-12T13:43:16.039Z,98551.43
2024-04-12T13:46:09.459Z,98513.75
2024-04-12T13:51:27.826Z,98517.94
2024-04-12T13:54:01.150Z,98528.11
2024-04-12T13:56:34.496Z,98541.14
2024-04-12T13:59:11.437Z,98548.69
2024-04-12T14:01:45.176Z,98553.66
2024-04-12T14:04:20.212Z,98543.47
2024-04-12T14:06:54.190Z,98555.04
2024-04-12T14:09:29.127Z,98560.02
2024-04-12T14:12:02.458Z,98540.38
2024-04-12T14:14:35.604Z,98536.13
2024-04-12T14:17:10.668Z,98528.84
2024-04-12T14:19:43.953Z,98542.75
2024-04-12T14:22:17.252Z,98502.02
2024-04-12T14:25:01.807Z,98523.13
2024-04-12T14:27:37.088Z,98520.25
2024-04-12T14:30:14.440Z,98522.37
2024-04-12T14:32:50.021Z,98509.61
2024-04-12T14:35:24.231Z,98517.63
2024-04-12T14:37:57.814Z,98504.89
2024-04-12T14:40:32.827Z,98512.53
2024-04-12T14:43:07.006Z,98504.45
2024-04-12T14:45:40.399Z,98502.96
2024-04-12T14:48:14.724Z,98493.04
2024-04-12T14:50:50.635Z,98517.66
2024-04-12T14:53:24.494Z,98492.83
2024-04-12T14:55:58.768Z,98524.10
2024-04-12T14:58:32.616Z,98520.20
2024-04-12T15:01:06.495Z,98554.28
2024-04-12T15:03:57.535Z,98584.05
2024-04-12T15:06:48.328Z,98570.90
2024-04-12T15:09:45.487Z,98616.53
2024-04-12T15:12:42.597Z,98616.39
2024-04-12T15:15:36.559Z,98630.70
2024-04-12T15:18:29.454Z,98635.18
2024-04-12T15:21:20.778Z,98636.25
2024-04-12T15:24:11.913Z,98627.65
2024-04-12T15:27:03.411Z,98651.34
2024-04-12T15:29:54.423Z,98663.53
2024-04-12T15:32:45.561Z,98649.56
2024-04-12T15:35:39.258Z,98641.88
2024-04-12T15:38:30.486Z,98647.27
2024-04-12T15:41:21.221Z,98650.02
2024-04-12T15:44:12.391Z,98627.42
2024-04-12T15:47:03.475Z,98609.13
2024-04-12T15:49:39.050Z,98605.47
2024-04-12T15:52:14.505Z,98594.12
2024-04-12T15:54:50.686Z,98594.17
2024-04-12T15:57:42.192Z,98587.24
2024-04-12T16:00:34.094Z,98594.23
2024-04-12T16:03:25.806Z,98588.16
2024-04-12T16:06:16.637Z,98582.01
2024-04-12T16:09:09.688Z,98583.77
2024-04-12T16:11:42.703Z,98587.28
2024-04-12T16:14:16.100Z,98586.37
2024-04-12T16:16:50.271Z,98597.68
2024-04-12T16:19:23.790Z,98591.54
2024-04-12T16:21:57.425Z,98615.05
2024-04-12T16:24:30.795Z,98628.99
2024-04-12T16:27:04.398Z,98633.37
2024-04-12T16:29:38.166Z,98625.51
2024-04-12T16:32:13.998Z,98624.66
2024-04-12T16:34:47.504Z,98609.81
2024-04-12T16:37:24.217Z,98602.88
2024-04-12T16:39:58.077Z,98598.50
2024-04-12T16:42:31.446Z,98595.90
2024-04-12T16:45:04.898Z,98592.47
2024-04-12T16:47:38.780Z,98597.72
2024-04-12T16:50:13.301Z,98597.75
2024-04-12T16:52:46.952Z,98598.63
2024-04-12T16:55:25.495Z,98608.16
2024-04-12T16:58:00.834Z,98609.89
2024-04-12T17:00:34.250Z,98603.77
2024-04-12T17:03:10.669Z,98621.16
2024-04-12T17:05:43.992Z,98619.45
2024-04-12T17:08:17.338Z,98613.34
2024-04-12T17:10:54.355Z,98620.31
2024-04-12T17:13:27.853Z,98613.37
2024-04-12T17:16:12.555Z,98602.95
2024-04-12T17:21:33.088Z,98610.76
2024-04-12T17:24:07.014Z,98597.02
2024-04-12T17:26:42.191Z,98621.23
2024-04-12T17:29:17.477Z,98609.00
2024-04-12T17:31:53.709Z,98614.23
2024-04-12T17:34:29.200Z,98618.56
2024-04-12T17:37:29.817Z,98610.72
2024-04-12T17:40:05.364Z,98608.94
2024-04-12T17:42:41.586Z,98602.86
2024-04-12T17:45:15.927Z,98615.95
2024-04-12T17:47:51.024Z,98605.48
2024-04-12T17:50:25.465Z,98613.34
2024-04-12T17:52:58.637Z,98612.45
2024-04-12T17:55:31.910Z,98604.66
2024-04-12T17:58:07.081Z,98607.33
2024-04-12T18:00:40.628Z,98612.54
2024-04-12T18:03:14.666Z,98615.22
2024-04-12T18:05:48.500Z,98605.66
2024-04-12T18:08:23.413Z,98612.70
2024-04-12T18:11:04.266Z,98613.58
2024-04-12T18:13:38.395Z,98628.37
2024-04-12T18:16:12.322Z,98621.41
2024-04-12T18:18:46.083Z,98644.05
2024-04-12T18:22:05.088Z,98651.86
2024-04-12T18:24:38.969Z,98640.55
2024-04-12T18:27:12.330Z,98640.59
2024-04-12T18:29:47.526Z,98644.95
2024-04-12T18:32:21.143Z,98638.91
2024-04-12T18:34:55.096Z,98651.97
2024-04-12T18:37:46.299Z,98647.59
2024-04-12T18:40:37.289Z,98657.19
2024-04-12T18:43:41.863Z,98664.17
2024-04-12T18:46:16.829Z,98660.72
2024-04-12T18:48:52.790Z,98672.08
2024-04-12T18:51:26.276Z,98670.36
2024-04-12T18:54:00.156Z,98673.00
2024-04-12T18:56:37.715Z,98681.70
2024-04-12T19:00:18.153Z,98683.47
2024-04-12T19:02:53.759Z,98688.69
2024-04-12T19:05:28.818Z,98683.47
2024-04-12T19:08:02.452Z,98688.70
2024-04-12T19:10:36.082Z,98693.92
2024-04-12T19:13:11.252Z,98682.63
2024-04-12T19:15:44.721Z,98689.59
2024-04-12T19:18:18.245Z,98682.61
2024-04-12T19:20:53.033Z,98673.06
2024-04-12T19:23:26.944Z,98680.04
2024-04-12T19:26:02.807Z,98673.05
2024-04-12T19:29:36.192Z,98673.06
2024-04-12T19:32:53.900Z,98682.64
2024-04-12T19:36:11.801Z,98676.58
2024-04-12T19:38:46.424Z,98690.48
2024-04-12T19:41:20.042Z,98677.44
2024-04-12T19:43:56.702Z,98671.36
2024-04-12T19:46:30.023Z,98674.00
2024-04-12T19:49:09.505Z,98677.49
2024-04-12T19:51:44.863Z,98687.05
2024-04-12T19:54:25.077Z,98678.36
2024-04-12T19:58:00.717Z,98700.09
2024-04-12T20:00:54.386Z,98708.80
2024-04-12T20:03:28.356Z,98668.80
2024-04-12T20:06:09.804Z,98693.10
2024-04-12T20:08:48.738Z,98692.20
2024-04-12T20:11:29.757Z,98691.33
2024-04-12T20:14:02.770Z,98681.75
2024-04-12T20:16:40.687Z,98679.12
2024-04-12T20:19:18.439Z,98672.13
2024-04-12T20:21:54.256Z,98686.88
2024-04-12T20:24:33.077Z,98696.44
2024-04-12T20:27:10.424Z,98688.63
2024-04-12T20:30:01.722Z,98694.72
2024-04-12T20:32:57.300Z,98711.24
2024-04-12T20:38:29.148Z,98699.13
2024-04-12T20:42:04.282Z,98705.20
2024-04-12T20:44:42.297Z,98711.23
2024-04-12T20:47:21.794Z,98717.34
2024-04-12T20:49:58.426Z,98712.98
2024-04-12T20:55:28.973Z,98714.79
2024-04-12T20:58:11.897Z,98711.27
2024-04-12T21:01:54.621Z,98723.41
2024-04-12T21:04:53.996Z,98728.63
2024-04-12T21:07:38.402Z,98736.44
2024-04-12T21:10:11.753Z,98738.16
2024-04-12T21:13:05.223Z,98726.84
2024-04-12T21:15:39.002Z,98725.09
2024-04-12T21:18:16.531Z,98739.02
2024-04-12T21:20:56.026Z,98719.88
2024-04-12T21:23:36.019Z,98721.63
2024-04-12T21:26:11.587Z,98738.97
2024-04-12T21:29:47.234Z,98734.58
2024-04-12T21:33:03.211Z,98733.64
2024-04-12T21:35:36.990Z,98730.05
2024-04-12T21:38:12.735Z,98738.63
2024-04-12T21:40:46.668Z,98753.32
2024-04-12T21:44:31.672Z,98750.66
2024-04-12T21:47:21.879Z,98754.11
2024-04-12T21:50:52.831Z,98747.98
2024-04-12T21:53:32.213Z,98751.45
2024-04-12T21:56:39.007Z,98748.84
2024-04-12T21:59:47.294Z,98748.84
2024-04-12T22:02:25.896Z,98749.68
2024-04-12T22:05:25.952Z,98760.86
2024-04-12T22:08:05.572Z,98765.98
2024-04-12T22:10:50.031Z,98757.21
2024-04-12T22:13:30.466Z,98764.09
2024-04-12T22:16:05.867Z,98768.42
2024-04-12T22:19:24.393Z,98765.75
2024-04-12T22:21:58.046Z,98778.69
2024-04-12T22:24:32.342Z,98770.81
2024-04-12T22:27:08.471Z,98764.72
2024-04-12T22:29:42.686Z,98775.05
2024-04-12T22:32:19.749Z,98774.97
2024-04-12T22:34:54.081Z,98782.68
2024-04-12T22:37:33.347Z,98790.39
2024-04-12T22:40:11.822Z,98787.75
2024-04-12T22:42:50.005Z,98787.68
2024-04-12T22:45:29.539Z,98787.63
2024-04-12T22:48:06.609Z,98789.30
2024-04-12T22:50:40.443Z,98787.53
2024-04-12T22:53:18.478Z,98798.70
2024-04-12T22:55:52.102Z,98796.06
2024-04-12T22:58:27.313Z,98798.56
2024-04-12T23:01:04.734Z,98801.12
2024-04-12T23:03:53.087Z,98798.47
2024-04-12T23:06:34.468Z,98801.03
2024-04-12T23:09:14.847Z,98799.25
2024-04-12T23:11:49.764Z,98799.19
2024-04-12T23:14:30.801Z,98799.12
2024-04-12T23:17:06.106Z,98808.54
2024-04-12T23:19:42.288Z,98799.83
2024-04-12T23:22:16.118Z,98795.50
2024-04-12T23:24:49.677Z,98793.73
2024-04-12T23:27:26.571Z,98806.66
2024-04-12T23:30:03.120Z,98804.00
2024-04-12T23:32:39.837Z,98810.84
2024-04-12T23:35:13.168Z,98809.96
2024-04-12T23:37:49.484Z,98812.52
2024-04-12T23:40:23.180Z,98814.18
2024-04-12T23:42:56.775Z,98821.03
2024-04-12T23:45:34.440Z,98817.53
2024-04-12T23:48:12.246Z,98825.27
2024-04-12T23:50:48.149Z,98822.64
2024-04-12T23:53:21.639Z,98826.02
2024-04-12T23:55:57.818Z,98838.09
2024-04-12T23:58:36.395Z,98834.54
